createdAt,value
2019-02-16T00:00:48.572Z,13.20
2019-02-16T00:03:32.533Z,12.50
2019-02-16T00:06:23.626Z,12.58
2019-02-16T00:09:07.442Z,11.90
2019-02-16T00:11:59.028Z,13.53
2019-02-16T00:14:43.296Z,12.18
2019-02-16T00:17:34.538Z,12.47
2019-02-16T00:20:18.636Z,13.08
2019-02-16T00:23:09.832Z,13.22
2019-02-16T00:25:53.937Z,12.18
2019-02-16T00:28:45.037Z,11.78
2019-02-16T00:31:29.618Z,12.18
2019-02-16T00:34:20.676Z,12.95
2019-02-16T00:37:04.725Z,12.10
2019-02-16T00:39:56.049Z,11.95
2019-02-16T00:42:28.245Z,12.45
2019-02-16T00:45:19.440Z,12.37
2019-02-16T00:48:03.030Z,12.28
2019-02-16T00:50:54.226Z,13.18
2019-02-16T00:53:39.921Z,13.45
2019-02-16T00:56:31.290Z,13.13
2019-02-16T00:59:15.165Z,13.93
2019-02-16T01:02:06.242Z,14.33
2019-02-16T01:04:49.839Z,11.70
2019-02-16T01:07:41.090Z,12.33
2019-02-16T01:10:24.933Z,14.40
2019-02-16T01:13:16.177Z,15.10
2019-02-16T01:15:59.961Z,15.13
2019-02-16T01:18:51.233Z,13.13
2019-02-16T01:21:34.835Z,14.43
2019-02-16T01:24:26.008Z,13.10
2019-02-16T01:27:10.369Z,13.50
2019-02-16T01:30:01.559Z,14.40
2019-02-16T01:32:46.955Z,14.33
2019-02-16T01:35:38.048Z,14.40
2019-02-16T01:38:21.975Z,13.72
2019-02-16T01:41:05.968Z,14.20
2019-02-16T01:43:49.844Z,15.08
2019-02-16T01:46:41.064Z,14.63
2019-02-16T01:49:13.108Z,14.28
2019-02-16T01:52:04.307Z,14.93
2019-02-16T01:54:48.123Z,13.65
2019-02-16T01:57:31.390Z,14.33
2019-02-16T02:00:22.565Z,16.20
2019-02-16T02:03:07.799Z,14.83
2019-02-16T02:05:58.994Z,18.57
2019-02-16T02:09:04.314Z,17.15
2019-02-16T02:11:56.970Z,17.73
2019-02-16T02:14:28.730Z,17.62
2019-02-16T02:17:19.787Z,17.20
2019-02-16T02:20:04.419Z,17.77
2019-02-16T02:22:55.652Z,18.40
2019-02-16T02:25:39.153Z,16.75
2019-02-16T02:28:30.186Z,17.85
2019-02-16T02:31:14.088Z,19.60
2019-02-16T02:33:58.125Z,19.23
2019-02-16T02:36:49.233Z,20.05
2019-02-16T02:39:34.652Z,19.67
2019-02-16T02:42:19.633Z,17.60
2019-02-16T02:45:03.355Z,17.90
2019-02-16T02:47:55.403Z,17.57
2019-02-16T02:50:27.511Z,17.57
2019-02-16T02:53:18.445Z,15.50
2019-02-16T02:56:03.395Z,16.15
2019-02-16T02:58:55.788Z,15.25
2019-02-16T03:01:39.924Z,17.80
2019-02-16T03:04:31.265Z,16.50
2019-02-16T03:07:15.368Z,16.30
2019-02-16T03:10:06.551Z,17.10
2019-02-16T03:12:50.852Z,19.55
2019-02-16T03:15:41.824Z,17.37
2019-02-16T03:18:26.127Z,18.10
2019-02-16T03:21:17.272Z,17.55
2019-02-16T03:24:01.261Z,16.97
2019-02-16T03:27:14.456Z,16.55
2019-02-16T03:34:14.303Z,16.42
2019-02-16T03:37:17.230Z,18.82
2019-02-16T03:40:00.880Z,18.07
2019-02-16T03:42:51.981Z,17.48
2019-02-16T03:45:36.085Z,18.45
2019-02-16T03:48:27.262Z,17.00
2019-02-16T03:51:11.183Z,17.95
2019-02-16T03:57:12.288Z,15.65
2019-02-16T04:00:03.322Z,16.62
2019-02-16T04:02:47.260Z,17.20
2019-02-16T04:05:38.519Z,16.10
2019-02-16T04:08:22.272Z,17.40
2019-02-16T04:11:13.382Z,16.55
2019-02-16T04:13:58.453Z,14.70
2019-02-16T04:16:49.607Z,16.45
2019-02-16T04:19:33.250Z,15.43
2019-02-16T04:22:25.060Z,15.78
2019-02-16T04:25:28.559Z,13.80
2019-02-16T04:28:19.608Z,16.10
2019-02-16T04:30:51.653Z,14.63
2019-02-16T04:33:23.609Z,14.10
2019-02-16T04:35:55.530Z,13.72
2019-02-16T04:38:27.423Z,14.83
2019-02-16T04:41:12.260Z,14.20
2019-02-16T04:43:44.299Z,15.23
2019-02-16T04:46:28.651Z,14.47
2019-02-16T04:49:00.684Z,16.10
2019-02-16T04:51:46.199Z,14.33
2019-02-16T04:54:37.308Z,18.17
2019-02-16T04:57:20.799Z,17.02
2019-02-16T05:00:11.900Z,17.57
2019-02-16T05:02:55.394Z,17.30
2019-02-16T05:05:46.708Z,17.75
2019-02-16T05:08:30.204Z,16.17
2019-02-16T05:11:21.317Z,16.85
2019-02-16T05:14:06.135Z,16.25
2019-02-16T05:16:57.352Z,15.05
2019-02-16T05:19:42.096Z,15.55
2019-02-16T05:22:33.170Z,14.73
2019-02-16T05:25:17.176Z,13.30
2019-02-16T05:28:01.079Z,14.23
2019-02-16T05:30:52.043Z,13.35
2019-02-16T05:33:35.738Z,14.05
2019-02-16T05:36:26.970Z,12.98
2019-02-16T05:39:10.733Z,14.38
2019-02-16T05:41:54.231Z,14.87
2019-02-16T05:44:45.297Z,14.98
2019-02-16T05:47:29.606Z,14.78
2019-02-16T05:50:13.771Z,14.07
2019-02-16T05:53:04.966Z,14.80
2019-02-16T05:55:49.240Z,13.55
2019-02-16T05:58:40.351Z,14.40
2019-02-16T06:01:24.409Z,12.73
2019-02-16T06:04:15.505Z,13.43
2019-02-16T06:06:59.121Z,12.37
2019-02-16T06:09:50.222Z,12.70
2019-02-16T06:12:34.694Z,12.33
2019-02-16T06:15:25.765Z,11.93
2019-02-16T06:18:10.103Z,11.88
2019-02-16T06:21:01.942Z,12.53
2019-02-16T06:24:05.484Z,12.60
2019-02-16T06:26:56.573Z,12.68
2019-02-16T06:29:40.487Z,13.00
2019-02-16T06:32:31.568Z,12.63
2019-02-16T06:35:37.195Z,12.70
2019-02-16T06:38:28.370Z,12.30
2019-02-16T06:41:12.915Z,11.90
2019-02-16T06:44:03.965Z,12.95
2019-02-16T06:46:47.781Z,13.00
2019-02-16T06:49:38.936Z,12.03
2019-02-16T06:52:23.248Z,13.15
2019-02-16T06:54:55.259Z,12.40
2019-02-16T06:57:39.669Z,12.00
2019-02-16T07:00:30.620Z,11.40
2019-02-16T07:03:14.041Z,12.43
2019-02-16T07:06:05.404Z,12.58
2019-02-16T07:08:49.329Z,12.60
2019-02-16T07:14:41.667Z,12.88
2019-02-16T07:20:39.039Z,12.50
2019-02-16T07:23:11.567Z,11.53
2019-02-16T07:25:43.648Z,12.55
2019-02-16T07:28:15.639Z,11.73
2019-02-16T07:30:47.605Z,10.05
2019-02-16T07:33:31.040Z,11.03
2019-02-16T07:36:22.321Z,11.10
2019-02-16T07:39:06.412Z,12.98
2019-02-16T07:41:57.574Z,15.72
2019-02-16T07:44:50.123Z,15.45
2019-02-16T07:48:00.138Z,11.80
2019-02-16T07:50:51.902Z,14.47
2019-02-16T07:53:47.523Z,12.95
2019-02-16T07:56:47.621Z,12.65
2019-02-16T07:59:37.174Z,13.22
2019-02-16T08:02:47.186Z,10.58
2019-02-16T08:12:04.603Z,12.50
2019-02-16T08:15:07.147Z,11.80
2019-02-16T08:18:10.755Z,10.75
2019-02-16T08:21:05.851Z,13.45
2019-02-16T08:24:35.050Z,12.68
2019-02-16T08:27:22.658Z,10.80
2019-02-16T08:30:32.790Z,10.85
2019-02-16T08:33:26.480Z,12.28
2019-02-16T08:36:28.780Z,10.98
2019-02-16T08:39:38.948Z,11.90
2019-02-16T08:42:41.970Z,12.15
2019-02-16T08:45:38.475Z,11.70
2019-02-16T08:48:48.556Z,12.18
2019-02-16T08:51:57.422Z,10.63
2019-02-16T08:55:06.986Z,10.68
2019-02-16T08:58:09.487Z,11.35
2019-02-16T09:01:19.409Z,12.30
2019-02-16T09:04:22.233Z,12.15
2019-02-16T09:07:32.341Z,11.73
2019-02-16T09:10:34.778Z,12.15
2019-02-16T09:13:44.813Z,11.78
2019-02-16T09:16:47.941Z,12.10
2019-02-16T09:19:57.912Z,11.80
2019-02-16T09:22:48.891Z,11.97
2019-02-16T09:25:59.009Z,11.75
2019-02-16T09:29:00.631Z,12.00
2019-02-16T09:31:59.157Z,11.93
2019-02-16T09:35:09.260Z,11.65
2019-02-16T09:38:06.246Z,11.55
2019-02-16T09:41:16.474Z,11.48
2019-02-16T09:44:18.660Z,12.10
2019-02-16T09:47:28.759Z,12.23
2019-02-16T09:50:33.087Z,12.40
2019-02-16T09:53:26.158Z,13.20
2019-02-16T09:56:35.165Z,12.33
2019-02-16T09:59:30.406Z,12.13
2019-02-16T10:02:40.245Z,13.70
2019-02-16T10:05:44.685Z,13.15
2019-02-16T10:08:54.774Z,13.45
2019-02-16T10:12:00.160Z,11.45
2019-02-16T10:15:10.092Z,11.15
2019-02-16T10:18:04.917Z,12.18
2019-02-16T10:21:14.945Z,13.03
2019-02-16T10:24:24.927Z,12.93
2019-02-16T10:27:27.997Z,14.07
2019-02-16T10:30:38.093Z,11.97
2019-02-16T10:33:41.109Z,12.55
2019-02-16T10:36:51.154Z,13.32
2019-02-16T10:39:55.284Z,12.35
2019-02-16T10:42:55.839Z,12.05
2019-02-16T10:46:05.875Z,11.53
2019-02-16T10:49:08.612Z,12.18
2019-02-16T10:52:11.073Z,11.80
2019-02-16T10:55:20.974Z,13.32
2019-02-16T10:58:14.342Z,12.43
2019-02-16T11:01:24.502Z,12.28
2019-02-16T11:04:26.875Z,12.73
2019-02-16T11:07:29.929Z,11.63
2019-02-16T11:10:39.864Z,13.50
2019-02-16T11:13:45.926Z,12.28
2019-02-16T11:16:48.784Z,13.38
2019-02-16T11:19:52.870Z,13.18
2019-02-16T11:23:02.845Z,12.00
2019-02-16T11:26:07.438Z,12.78
2019-02-16T11:29:17.487Z,11.70
2019-02-16T11:32:11.579Z,12.95
2019-02-16T11:35:21.710Z,13.08
2019-02-16T11:38:19.027Z,13.55
2019-02-16T11:41:29.058Z,12.55
2019-02-16T11:44:31.645Z,12.65
2019-02-16T11:47:22.935Z,12.43
2019-02-16T11:50:33.241Z,12.63
2019-02-16T11:53:40.513Z,12.98
2019-02-16T11:56:50.645Z,12.82
2019-02-16T11:59:41.942Z,12.95
2019-02-16T12:02:39.829Z,13.05
2019-02-16T12:05:47.038Z,12.55
2019-02-16T12:08:46.090Z,13.28
2019-02-16T12:11:58.895Z,11.95
2019-02-16T12:15:08.953Z,13.65
2019-02-16T12:18:11.941Z,12.40
2019-02-16T12:21:24.866Z,13.15
2019-02-16T12:24:27.275Z,12.65
2019-02-16T12:27:39.852Z,10.98
2019-02-16T12:30:34.970Z,13.85
2019-02-16T12:33:32.526Z,13.30
2019-02-16T12:36:42.393Z,13.78
2019-02-16T12:39:52.509Z,11.38
2019-02-16T12:42:55.265Z,13.45
2019-02-16T12:45:57.618Z,12.98
2019-02-16T12:48:51.109Z,11.93
2019-02-16T12:51:42.590Z,11.83
2019-02-16T12:54:52.752Z,12.73
2019-02-16T12:57:49.607Z,13.05
2019-02-16T13:00:53.693Z,11.60
2019-02-16T13:04:03.694Z,10.63
2019-02-16T13:07:06.542Z,8.43
2019-02-16T13:10:16.499Z,13.22
2019-02-16T13:16:36.855Z,11.00
2019-02-16T13:19:47.000Z,11.48
2019-02-16T13:22:25.276Z,11.40
2019-02-16T13:25:35.364Z,11.20
2019-02-16T13:28:27.369Z,10.30
2019-02-16T13:31:18.433Z,10.48
2019-02-16T13:34:09.308Z,8.40
2019-02-16T13:36:59.952Z,11.50
2019-02-16T13:40:04.436Z,13.00
2019-02-16T13:42:44.655Z,10.55
2019-02-16T13:45:42.251Z,10.45
2019-02-16T13:48:21.501Z,15.75
2019-02-16T13:54:15.658Z,8.85
2019-02-16T13:57:06.484Z,10.88
2019-02-16T13:59:57.387Z,9.60
2019-02-16T14:02:43.646Z,9.40
2019-02-16T14:05:35.201Z,9.40
2019-02-16T14:08:33.068Z,8.85
2019-02-16T14:11:25.789Z,8.65
2019-02-16T14:14:11.991Z,8.30
2019-02-16T14:17:05.717Z,9.05
2019-02-16T14:19:37.601Z,9.28
2019-02-16T14:22:09.756Z,8.95
2019-02-16T14:25:02.588Z,11.05
2019-02-16T14:27:34.582Z,9.90
2019-02-16T14:30:07.944Z,9.00
2019-02-16T14:32:40.209Z,8.58
2019-02-16T14:35:12.206Z,9.00
2019-02-16T14:38:06.103Z,9.00
2019-02-16T14:40:38.053Z,8.58
2019-02-16T14:43:09.940Z,7.97
2019-02-16T14:45:43.357Z,7.85
2019-02-16T14:48:15.387Z,8.55
2019-02-16T14:50:47.452Z,6.97
2019-02-16T14:53:19.559Z,8.43
2019-02-16T14:55:54.250Z,8.70
2019-02-16T14:58:25.458Z,8.28
2019-02-16T15:00:58.695Z,9.90
2019-02-16T15:03:30.730Z,9.80
2019-02-16T15:06:02.757Z,9.33
2019-02-16T15:08:34.950Z,8.30
2019-02-16T15:11:06.989Z,9.85
2019-02-16T15:13:39.155Z,11.08
2019-02-16T15:16:11.089Z,10.15
2019-02-16T15:18:43.360Z,9.65
2019-02-16T15:21:15.341Z,9.43
2019-02-16T15:23:47.725Z,9.53
2019-02-16T15:26:28.119Z,10.38
2019-02-16T15:28:53.507Z,9.25
2019-02-16T15:31:25.871Z,9.95
2019-02-16T15:33:57.920Z,8.70
2019-02-16T15:36:32.828Z,9.30
2019-02-16T15:39:06.603Z,9.65
2019-02-16T15:41:39.095Z,9.48
2019-02-16T15:44:11.572Z,10.82
2019-02-16T15:46:43.579Z,9.50
2019-02-16T15:49:15.579Z,9.80
2019-02-16T15:51:47.734Z,9.43
2019-02-16T15:54:21.043Z,11.03
2019-02-16T15:56:53.237Z,10.50
2019-02-16T15:59:25.431Z,9.90
2019-02-16T16:01:59.012Z,11.50
2019-02-16T16:04:31.190Z,8.95
2019-02-16T16:07:05.192Z,9.95
2019-02-16T16:09:47.763Z,10.70
2019-02-16T16:12:41.557Z,9.43
2019-02-16T16:15:31.663Z,9.50
2019-02-16T16:18:22.459Z,9.98
2019-02-16T16:21:16.288Z,9.80
2019-02-16T16:24:04.025Z,10.40
2019-02-16T16:27:00.839Z,11.73
2019-02-16T16:30:00.710Z,12.40
2019-02-16T16:32:59.375Z,11.20
2019-02-16T16:35:48.860Z,11.93
2019-02-16T16:38:31.042Z,11.20
2019-02-16T16:41:40.093Z,12.45
2019-02-16T16:44:29.429Z,11.05
2019-02-16T16:47:29.325Z,13.43
2019-02-16T16:50:35.303Z,11.90
2019-02-16T16:53:28.663Z,13.08
2019-02-16T16:56:05.717Z,13.75
2019-02-16T16:58:49.979Z,13.60
2019-02-16T17:01:52.819Z,12.53
2019-02-16T17:04:40.411Z,11.95
2019-02-16T17:07:31.282Z,12.70
2019-02-16T17:10:21.168Z,15.03
2019-02-16T17:12:58.725Z,14.33
2019-02-16T17:16:07.702Z,11.65
2019-02-16T17:18:57.809Z,11.88
2019-02-16T17:21:49.580Z,11.55
2019-02-16T17:24:42.807Z,14.55
2019-02-16T17:27:25.719Z,14.05
2019-02-16T17:30:04.848Z,14.50
2019-02-16T17:33:15.862Z,15.40
2019-02-16T17:35:58.558Z,13.32
2019-02-16T17:38:52.522Z,13.88
2019-02-16T17:41:32.662Z,16.52
2019-02-16T17:44:26.527Z,16.25
2019-02-16T17:47:15.761Z,15.65
2019-02-16T17:49:58.598Z,16.07
2019-02-16T17:52:49.493Z,16.60
2019-02-16T17:55:49.256Z,15.35
2019-02-16T17:58:32.697Z,15.45
2019-02-16T18:01:22.713Z,14.43
2019-02-16T18:04:32.637Z,13.88
2019-02-16T18:07:32.959Z,13.50
2019-02-16T18:10:25.473Z,12.90
2019-02-16T18:13:03.821Z,15.85
2019-02-16T18:15:57.793Z,14.53
2019-02-16T18:18:38.322Z,13.43
2019-02-16T18:21:25.330Z,14.30
2019-02-16T18:24:08.974Z,15.32
2019-02-16T18:26:56.017Z,15.50
2019-02-16T18:29:46.938Z,15.48
2019-02-16T18:32:43.425Z,15.28
2019-02-16T18:35:30.063Z,14.90
2019-02-16T18:38:32.560Z,15.25
2019-02-16T18:41:28.672Z,14.35
2019-02-16T18:44:22.832Z,14.28
2019-02-16T18:47:16.726Z,15.88
2019-02-16T18:50:12.585Z,16.70
2019-02-16T18:53:09.022Z,15.43
2019-02-16T18:55:52.368Z,15.18
2019-02-16T18:58:42.296Z,15.68
2019-02-16T19:01:39.990Z,16.25
2019-02-16T19:04:34.154Z,16.00
2019-02-16T19:07:40.323Z,16.40
2019-02-16T19:10:31.372Z,15.50
2019-02-16T19:13:28.665Z,16.60
2019-02-16T19:16:16.527Z,16.80
2019-02-16T19:19:12.955Z,17.90
2019-02-16T19:22:04.232Z,15.60
2019-02-16T19:24:48.964Z,15.98
2019-02-16T19:27:51.462Z,17.42
2019-02-16T19:30:48.889Z,16.00
2019-02-16T19:33:38.413Z,15.88
2019-02-16T19:36:19.845Z,15.48
2019-02-16T19:39:07.400Z,16.97
2019-02-16T19:42:02.149Z,15.65
2019-02-16T19:44:47.031Z,15.55
2019-02-16T19:47:50.244Z,16.10
2019-02-16T19:50:46.983Z,16.50
2019-02-16T19:53:41.434Z,16.73
2019-02-16T19:56:23.928Z,17.98
2019-02-16T19:59:20.989Z,15.63
2019-02-16T20:02:04.259Z,16.60
2019-02-16T20:04:53.851Z,17.48
2019-02-16T20:07:44.768Z,15.78
2019-02-16T20:10:38.837Z,18.65
2019-02-16T20:13:29.799Z,17.77
2019-02-16T20:16:08.251Z,17.02
2019-02-16T20:19:14.250Z,15.68
2019-02-16T20:21:53.303Z,16.45
2019-02-16T20:24:44.297Z,17.23
2019-02-16T20:27:43.926Z,18.40
2019-02-16T20:30:33.916Z,17.57
2019-02-16T20:33:44.510Z,18.65
2019-02-16T20:36:41.504Z,17.60
2019-02-16T20:39:23.735Z,17.25
2019-02-16T20:42:04.587Z,17.90
2019-02-16T20:45:01.618Z,16.87
2019-02-16T20:47:52.616Z,25.40
2019-02-16T20:50:55.608Z,21.85
2019-02-16T20:53:49.455Z,19.95
2019-02-16T20:56:34.674Z,19.00
2019-02-16T20:59:27.129Z,17.65
2019-02-16T21:02:16.871Z,19.65
2019-02-16T21:05:16.102Z,18.55
2019-02-16T21:08:10.436Z,18.00
2019-02-16T21:10:50.384Z,19.10
2019-02-16T21:13:31.279Z,18.73
2019-02-16T21:16:25.419Z,18.60
2019-02-16T21:19:19.659Z,18.20
2019-02-16T21:22:20.097Z,18.65
2019-02-16T21:25:17.354Z,17.62
2019-02-16T21:28:13.302Z,21.45
2019-02-16T21:31:04.325Z,18.05
2019-02-16T21:33:55.445Z,18.45
2019-02-16T21:36:35.895Z,19.20
2019-02-16T21:39:27.461Z,18.57
2019-02-16T21:42:20.673Z,16.93
2019-02-16T21:45:10.491Z,18.65
2019-02-16T21:48:01.424Z,18.50
2019-02-16T21:51:04.623Z,20.85
2019-02-16T21:53:54.338Z,19.15
2019-02-16T21:56:45.887Z,19.95
2019-02-16T21:59:41.999Z,20.05
2019-02-16T22:02:33.211Z,18.23
2019-02-16T22:05:24.631Z,20.57
2019-02-16T22:08:24.969Z,18.05
2019-02-16T22:11:10.880Z,19.52
2019-02-16T22:13:42.937Z,19.60
2019-02-16T22:16:15.026Z,19.75
2019-02-16T22:18:47.313Z,20.27
2019-02-16T22:21:19.379Z,20.72
2019-02-16T22:23:52.557Z,19.15
2019-02-16T22:26:24.609Z,19.67
2019-02-16T22:28:56.764Z,18.90
2019-02-16T22:31:29.425Z,20.50
2019-02-16T22:34:01.775Z,20.27
2019-02-16T22:36:33.827Z,19.27
2019-02-16T22:39:07.146Z,20.40
2019-02-16T22:41:40.421Z,23.00
2019-02-16T22:44:12.465Z,20.37
2019-02-16T22:46:44.980Z,20.55
2019-02-16T22:49:17.139Z,20.50
2019-02-16T22:51:50.901Z,21.65
2019-02-16T22:54:23.347Z,23.18
2019-02-16T22:56:55.291Z,24.23
2019-02-16T22:59:27.400Z,24.65
2019-02-16T23:01:59.588Z,22.52
2019-02-16T23:04:31.543Z,22.13
2019-02-16T23:07:03.679Z,21.90
2019-02-16T23:09:35.664Z,20.60
2019-02-16T23:12:08.358Z,21.90
2019-02-16T23:14:40.513Z,21.00
2019-02-16T23:17:12.848Z,20.45
2019-02-16T23:19:44.992Z,20.60
2019-02-16T23:22:16.977Z,21.50
2019-02-16T23:24:49.021Z,21.00
2019-02-16T23:27:21.040Z,19.92
2019-02-16T23:29:53.177Z,19.15
2019-02-16T23:32:25.192Z,20.30
2019-02-16T23:34:57.260Z,20.82
2019-02-16T23:37:29.328Z,20.23
2019-02-16T23:40:01.540Z,19.27
2019-02-16T23:42:33.687Z,20.23
2019-02-16T23:45:06.226Z,20.77
2019-02-16T23:47:38.483Z,21.20
2019-02-16T23:50:11.163Z,19.87
2019-02-16T23:52:43.286Z,18.75
2019-02-16T23:55:15.305Z,18.57
2019-02-16T23:57:47.390Z,20.52
